sensor_id;sensor_type;location;lat;lon;timestamp;temperature;humidity
10062;DHT22;5070;52.382;5.270;2023-04-25T00:01:03;18.50;81.60
10062;DHT22;5070;52.382;5.270;2023-04-25T00:03:32;18.50;81.50
10062;DHT22;5070;52.382;5.270;2023-04-25T00:06:02;18.50;81.50
10062;DHT22;5070;52.382;5.270;2023-04-25T00:08:30;18.50;81.50
10062;DHT22;5070;52.382;5.270;2023-04-25T00:10:58;18.40;81.30
10062;DHT22;5070;52.382;5.270;2023-04-25T00:13:27;18.40;81.30
10062;DHT22;5070;52.382;5.270;2023-04-25T00:15:55;18.40;81.10
10062;DHT22;5070;52.382;5.270;2023-04-25T00:18:24;18.40;81.10
10062;DHT22;5070;52.382;5.270;2023-04-25T00:20:56;18.40;81.10
10062;DHT22;5070;52.382;5.270;2023-04-25T00:23:24;18.40;81.10
10062;DHT22;5070;52.382;5.270;2023-04-25T00:25:52;18.40;81.90
10062;DHT22;5070;52.382;5.270;2023-04-25T00:28:20;18.40;81.00
10062;DHT22;5070;52.382;5.270;2023-04-25T00:30:48;18.40;81.00
10062;DHT22;5070;52.382;5.270;2023-04-25T00:33:16;18.40;81.00
10062;DHT22;5070;52.382;5.270;2023-04-25T00:35:44;18.40;80.90
10062;DHT22;5070;52.382;5.270;2023-04-25T00:38:14;18.40;81.00
10062;DHT22;5070;52.382;5.270;2023-04-25T00:40:42;18.30;81.00
10062;DHT22;5070;52.382;5.270;2023-04-25T00:43:10;18.30;80.80
10062;DHT22;5070;52.382;5.270;2023-04-25T00:45:39;18.30;80.90
10062;DHT22;5070;52.382;5.270;2023-04-25T00:48:07;18.30;80.70
10062;DHT22;5070;52.382;5.270;2023-04-25T00:50:36;18.30;80.80
10062;DHT22;5070;52.382;5.270;2023-04-25T00:53:04;18.30;80.70
10062;DHT22;5070;52.382;5.270;2023-04-25T00:55:34;18.30;80.70
10062;DHT22;5070;52.382;5.270;2023-04-25T00:58:02;18.30;80.50
10062;DHT22;5070;52.382;5.270;2023-04-25T01:00:30;18.30;80.40
10062;DHT22;5070;52.382;5.270;2023-04-25T01:02:59;18.30;80.60
10062;DHT22;5070;52.382;5.270;2023-04-25T01:05:31;18.30;80.50
10062;DHT22;5070;52.382;5.270;2023-04-25T01:07:59;18.30;80.30
10062;DHT22;5070;52.382;5.270;2023-04-25T01:10:27;18.30;80.30
10062;DHT22;5070;52.382;5.270;2023-04-25T01:12:57;18.30;80.20
10062;DHT22;5070;52.382;5.270;2023-04-25T01:15:25;18.30;80.30
10062;DHT22;5070;52.382;5.270;2023-04-25T01:17:53;18.20;80.20
10062;DHT22;5070;52.382;5.270;2023-04-25T01:20:24;18.20;80.20
10062;DHT22;5070;52.382;5.270;2023-04-25T01:22:55;18.20;80.20
10062;DHT22;5070;52.382;5.270;2023-04-25T01:25:23;18.20;80.00
10062;DHT22;5070;52.382;5.270;2023-04-25T01:27:51;18.20;79.90
10062;DHT22;5070;52.382;5.270;2023-04-25T01:30:20;18.20;79.90
10062;DHT22;5070;52.382;5.270;2023-04-25T01:32:48;18.20;79.90
10062;DHT22;5070;52.382;5.270;2023-04-25T01:35:16;18.20;79.90
10062;DHT22;5070;52.382;5.270;2023-04-25T01:37:45;18.20;79.90
10062;DHT22;5070;52.382;5.270;2023-04-25T01:40:14;18.20;79.90
10062;DHT22;5070;52.382;5.270;2023-04-25T01:42:43;18.20;79.90
10062;DHT22;5070;52.382;5.270;2023-04-25T01:45:11;18.20;79.90
10062;DHT22;5070;52.382;5.270;2023-04-25T01:47:39;18.10;79.70
10062;DHT22;5070;52.382;5.270;2023-04-25T01:50:10;18.10;79.60
10062;DHT22;5070;52.382;5.270;2023-04-25T01:52:38;18.10;79.50
10062;DHT22;5070;52.382;5.270;2023-04-25T01:55:08;18.10;79.40
10062;DHT22;5070;52.382;5.270;2023-04-25T01:57:41;18.10;79.50
10062;DHT22;5070;52.382;5.270;2023-04-25T02:00:11;18.10;79.50
10062;DHT22;5070;52.382;5.270;2023-04-25T02:02:39;18.10;79.50
10062;DHT22;5070;52.382;5.270;2023-04-25T02:05:18;18.10;79.40
10062;DHT22;5070;52.382;5.270;2023-04-25T02:07:47;18.10;79.40
10062;DHT22;5070;52.382;5.270;2023-04-25T02:10:15;18.10;79.30
10062;DHT22;5070;52.382;5.270;2023-04-25T02:12:56;18.10;79.40
10062;DHT22;5070;52.382;5.270;2023-04-25T02:16:03;18.10;79.20
10062;DHT22;5070;52.382;5.270;2023-04-25T02:18:31;18.00;79.10
10062;DHT22;5070;52.382;5.270;2023-04-25T02:21:00;18.00;79.00
10062;DHT22;5070;52.382;5.270;2023-04-25T02:23:28;18.00;79.00
10062;DHT22;5070;52.382;5.270;2023-04-25T02:25:56;18.00;79.00
10062;DHT22;5070;52.382;5.270;2023-04-25T02:28:26;18.00;78.90
10062;DHT22;5070;52.382;5.270;2023-04-25T02:30:54;18.00;78.80
10062;DHT22;5070;52.382;5.270;2023-04-25T02:33:23;18.00;79.60
10062;DHT22;5070;52.382;5.270;2023-04-25T02:35:51;18.00;78.90
10062;DHT22;5070;52.382;5.270;2023-04-25T02:38:21;18.00;78.90
10062;DHT22;5070;52.382;5.270;2023-04-25T02:40:49;18.00;78.70
10062;DHT22;5070;52.382;5.270;2023-04-25T02:43:17;18.00;78.60
10062;DHT22;5070;52.382;5.270;2023-04-25T02:45:47;18.00;78.60
10062;DHT22;5070;52.382;5.270;2023-04-25T02:48:15;18.00;78.70
10062;DHT22;5070;52.382;5.270;2023-04-25T02:50:44;17.90;78.60
10062;DHT22;5070;52.382;5.270;2023-04-25T02:53:12;17.90;78.70
10062;DHT22;5070;52.382;5.270;2023-04-25T02:55:46;17.90;78.70
10062;DHT22;5070;52.382;5.270;2023-04-25T02:58:14;17.90;78.70
10062;DHT22;5070;52.382;5.270;2023-04-25T03:00:49;17.90;78.50
10062;DHT22;5070;52.382;5.270;2023-04-25T03:03:17;17.90;78.60
10062;DHT22;5070;52.382;5.270;2023-04-25T03:05:49;17.90;78.40
10062;DHT22;5070;52.382;5.270;2023-04-25T03:08:22;17.90;78.70
10062;DHT22;5070;52.382;5.270;2023-04-25T03:10:52;17.90;78.30
10062;DHT22;5070;52.382;5.270;2023-04-25T03:13:22;17.90;78.60
10062;DHT22;5070;52.382;5.270;2023-04-25T03:15:54;17.90;78.60
10062;DHT22;5070;52.382;5.270;2023-04-25T03:18:22;17.90;78.40
10062;DHT22;5070;52.382;5.270;2023-04-25T03:20:50;17.90;78.40
10062;DHT22;5070;52.382;5.270;2023-04-25T03:23:18;17.90;78.40
10062;DHT22;5070;52.382;5.270;2023-04-25T03:25:46;17.90;78.50
10062;DHT22;5070;52.382;5.270;2023-04-25T03:28:14;17.90;78.30
10062;DHT22;5070;52.382;5.270;2023-04-25T03:30:42;17.90;78.40
10062;DHT22;5070;52.382;5.270;2023-04-25T03:33:12;17.90;78.40
10062;DHT22;5070;52.382;5.270;2023-04-25T03:35:40;17.90;78.20
10062;DHT22;5070;52.382;5.270;2023-04-25T03:38:09;17.90;78.30
10062;DHT22;5070;52.382;5.270;2023-04-25T03:40:39;17.90;78.40
10062;DHT22;5070;52.382;5.270;2023-04-25T03:43:14;17.90;78.40
10062;DHT22;5070;52.382;5.270;2023-04-25T03:45:49;17.90;78.40
10062;DHT22;5070;52.382;5.270;2023-04-25T03:48:21;17.90;78.40
10062;DHT22;5070;52.382;5.270;2023-04-25T03:50:51;18.00;78.40
10062;DHT22;5070;52.382;5.270;2023-04-25T03:53:19;18.00;78.30
10062;DHT22;5070;52.382;5.270;2023-04-25T03:56:13;18.00;78.10
10062;DHT22;5070;52.382;5.270;2023-04-25T03:58:42;18.00;77.90
10062;DHT22;5070;52.382;5.270;2023-04-25T04:01:11;18.00;77.90
10062;DHT22;5070;52.382;5.270;2023-04-25T04:03:41;18.00;77.70
10062;DHT22;5070;52.382;5.270;2023-04-25T04:06:09;18.00;77.80
10062;DHT22;5070;52.382;5.270;2023-04-25T04:08:42;18.00;77.60
10062;DHT22;5070;52.382;5.270;2023-04-25T04:11:11;18.00;77.40
10062;DHT22;5070;52.382;5.270;2023-04-25T04:13:39;18.00;77.50
10062;DHT22;5070;52.382;5.270;2023-04-25T04:16:07;18.00;77.70
10062;DHT22;5070;52.382;5.270;2023-04-25T04:18:36;18.00;78.40
10062;DHT22;5070;52.382;5.270;2023-04-25T04:21:05;18.00;77.30
10062;DHT22;5070;52.382;5.270;2023-04-25T04:23:36;18.00;78.20
10062;DHT22;5070;52.382;5.270;2023-04-25T04:26:06;18.00;77.40
10062;DHT22;5070;52.382;5.270;2023-04-25T04:28:53;18.00;77.20
10062;DHT22;5070;52.382;5.270;2023-04-25T04:31:47;18.00;76.90
10062;DHT22;5070;52.382;5.270;2023-04-25T04:34:16;18.00;76.90
10062;DHT22;5070;52.382;5.270;2023-04-25T04:36:45;18.00;76.90
10062;DHT22;5070;52.382;5.270;2023-04-25T04:39:14;18.00;76.80
10062;DHT22;5070;52.382;5.270;2023-04-25T04:41:59;18.00;76.90
10062;DHT22;5070;52.382;5.270;2023-04-25T04:44:36;18.00;76.80
10062;DHT22;5070;52.382;5.270;2023-04-25T04:47:42;17.90;76.70
10062;DHT22;5070;52.382;5.270;2023-04-25T04:50:24;17.90;76.90
10062;DHT22;5070;52.382;5.270;2023-04-25T04:53:08;17.90;76.70
10062;DHT22;5070;52.382;5.270;2023-04-25T04:55:54;17.90;76.60
10062;DHT22;5070;52.382;5.270;2023-04-25T04:58:52;17.90;77.30
10062;DHT22;5070;52.382;5.270;2023-04-25T05:01:29;17.90;76.60
10062;DHT22;5070;52.382;5.270;2023-04-25T05:04:15;17.90;76.50
10062;DHT22;5070;52.382;5.270;2023-04-25T05:06:58;17.90;76.50
10062;DHT22;5070;52.382;5.270;2023-04-25T05:09:28;17.90;76.30
10062;DHT22;5070;52.382;5.270;2023-04-25T05:12:12;17.90;76.40
10062;DHT22;5070;52.382;5.270;2023-04-25T05:15:06;17.90;76.30
10062;DHT22;5070;52.382;5.270;2023-04-25T05:17:50;17.90;76.30
10062;DHT22;5070;52.382;5.270;2023-04-25T05:20:36;17.90;76.20
10062;DHT22;5070;52.382;5.270;2023-04-25T05:23:06;17.90;76.10
10062;DHT22;5070;52.382;5.270;2023-04-25T05:25:56;17.90;76.10
10062;DHT22;5070;52.382;5.270;2023-04-25T05:28:50;17.80;75.80
10062;DHT22;5070;52.382;5.270;2023-04-25T05:31:38;17.90;75.90
10062;DHT22;5070;52.382;5.270;2023-04-25T05:34:10;17.90;76.00
10062;DHT22;5070;52.382;5.270;2023-04-25T05:36:50;17.90;76.00
10062;DHT22;5070;52.382;5.270;2023-04-25T05:39:18;17.90;76.20
10062;DHT22;5070;52.382;5.270;2023-04-25T05:42:09;17.90;76.50
10062;DHT22;5070;52.382;5.270;2023-04-25T05:44:59;17.90;76.70
10062;DHT22;5070;52.382;5.270;2023-04-25T05:47:37;17.90;76.70
10062;DHT22;5070;52.382;5.270;2023-04-25T05:50:10;18.00;77.10
10062;DHT22;5070;52.382;5.270;2023-04-25T05:52:58;18.00;77.40
10062;DHT22;5070;52.382;5.270;2023-04-25T05:55:34;18.00;77.40
10062;DHT22;5070;52.382;5.270;2023-04-25T05:58:21;18.00;77.50
10062;DHT22;5070;52.382;5.270;2023-04-25T06:00:50;18.10;77.70
10062;DHT22;5070;52.382;5.270;2023-04-25T06:03:18;18.10;78.00
10062;DHT22;5070;52.382;5.270;2023-04-25T06:05:51;18.10;78.10
10062;DHT22;5070;52.382;5.270;2023-04-25T06:08:19;18.10;77.90
10062;DHT22;5070;52.382;5.270;2023-04-25T06:10:47;18.10;77.60
10062;DHT22;5070;52.382;5.270;2023-04-25T06:13:15;18.20;78.10
10062;DHT22;5070;52.382;5.270;2023-04-25T06:15:45;18.20;79.20
10062;DHT22;5070;52.382;5.270;2023-04-25T06:18:13;18.20;79.40
10062;DHT22;5070;52.382;5.270;2023-04-25T06:20:41;18.20;80.10
10062;DHT22;5070;52.382;5.270;2023-04-25T06:23:09;18.30;81.00
10062;DHT22;5070;52.382;5.270;2023-04-25T06:25:52;18.30;80.30
10062;DHT22;5070;52.382;5.270;2023-04-25T06:28:21;18.40;79.90
10062;DHT22;5070;52.382;5.270;2023-04-25T06:30:52;18.40;79.70
10062;DHT22;5070;52.382;5.270;2023-04-25T06:33:20;18.40;79.90
10062;DHT22;5070;52.382;5.270;2023-04-25T06:35:49;18.40;79.70
10062;DHT22;5070;52.382;5.270;2023-04-25T06:38:22;18.50;79.60
10062;DHT22;5070;52.382;5.270;2023-04-25T06:40:51;18.50;79.40
10062;DHT22;5070;52.382;5.270;2023-04-25T06:43:19;18.50;79.50
10062;DHT22;5070;52.382;5.270;2023-04-25T06:46:10;18.50;80.00
10062;DHT22;5070;52.382;5.270;2023-04-25T06:48:43;18.50;80.20
10062;DHT22;5070;52.382;5.270;2023-04-25T06:51:11;18.50;80.80
10062;DHT22;5070;52.382;5.270;2023-04-25T06:53:40;18.50;80.90
10062;DHT22;5070;52.382;5.270;2023-04-25T06:56:14;18.50;81.20
10062;DHT22;5070;52.382;5.270;2023-04-25T06:58:53;18.50;80.50
10062;DHT22;5070;52.382;5.270;2023-04-25T07:01:30;18.50;80.30
10062;DHT22;5070;52.382;5.270;2023-04-25T07:04:01;18.50;81.30
10062;DHT22;5070;52.382;5.270;2023-04-25T07:06:31;18.50;81.10
10062;DHT22;5070;52.382;5.270;2023-04-25T07:08:59;18.50;81.20
10062;DHT22;5070;52.382;5.270;2023-04-25T07:11:29;18.60;81.60
10062;DHT22;5070;52.382;5.270;2023-04-25T07:13:57;18.60;81.80
10062;DHT22;5070;52.382;5.270;2023-04-25T07:16:24;18.60;81.10
10062;DHT22;5070;52.382;5.270;2023-04-25T07:18:56;18.60;81.00
10062;DHT22;5070;52.382;5.270;2023-04-25T07:21:24;18.60;80.90
10062;DHT22;5070;52.382;5.270;2023-04-25T07:23:52;18.70;80.00
10062;DHT22;5070;52.382;5.270;2023-04-25T07:26:29;18.70;81.20
10062;DHT22;5070;52.382;5.270;2023-04-25T07:29:17;18.70;80.40
10062;DHT22;5070;52.382;5.270;2023-04-25T07:31:45;18.70;81.00
10062;DHT22;5070;52.382;5.270;2023-04-25T07:34:16;18.70;81.60
10062;DHT22;5070;52.382;5.270;2023-04-25T07:36:44;18.70;81.90
10062;DHT22;5070;52.382;5.270;2023-04-25T07:39:15;18.70;82.00
10062;DHT22;5070;52.382;5.270;2023-04-25T07:41:52;18.70;82.50
10062;DHT22;5070;52.382;5.270;2023-04-25T07:44:24;18.70;82.20
10062;DHT22;5070;52.382;5.270;2023-04-25T07:46:53;18.70;81.60
10062;DHT22;5070;52.382;5.270;2023-04-25T07:49:22;18.70;81.60
10062;DHT22;5070;52.382;5.270;2023-04-25T07:51:50;18.70;81.80
10062;DHT22;5070;52.382;5.270;2023-04-25T07:54:19;18.70;81.30
10062;DHT22;5070;52.382;5.270;2023-04-25T07:56:53;18.70;81.20
10062;DHT22;5070;52.382;5.270;2023-04-25T07:59:46;18.70;81.80
10062;DHT22;5070;52.382;5.270;2023-04-25T08:02:15;18.80;81.70
10062;DHT22;5070;52.382;5.270;2023-04-25T08:04:45;18.80;81.80
10062;DHT22;5070;52.382;5.270;2023-04-25T08:07:19;18.80;80.90
10062;DHT22;5070;52.382;5.270;2023-04-25T08:09:51;18.80;81.60
10062;DHT22;5070;52.382;5.270;2023-04-25T08:12:26;18.80;81.70
10062;DHT22;5070;52.382;5.270;2023-04-25T08:14:55;18.80;81.80
10062;DHT22;5070;52.382;5.270;2023-04-25T08:17:26;18.80;81.40
10062;DHT22;5070;52.382;5.270;2023-04-25T08:19:58;18.90;81.60
10062;DHT22;5070;52.382;5.270;2023-04-25T08:22:30;18.90;81.60
10062;DHT22;5070;52.382;5.270;2023-04-25T08:25:16;18.90;81.40
10062;DHT22;5070;52.382;5.270;2023-04-25T08:27:45;18.90;81.60
10062;DHT22;5070;52.382;5.270;2023-04-25T08:30:15;18.90;81.60
10062;DHT22;5070;52.382;5.270;2023-04-25T08:32:44;18.90;81.60
10062;DHT22;5070;52.382;5.270;2023-04-25T08:35:39;19.00;81.80
10062;DHT22;5070;52.382;5.270;2023-04-25T08:38:07;19.00;81.80
10062;DHT22;5070;52.382;5.270;2023-04-25T08:40:38;19.00;81.80
10062;DHT22;5070;52.382;5.270;2023-04-25T08:43:13;19.00;82.00
10062;DHT22;5070;52.382;5.270;2023-04-25T08:45:42;19.00;82.00
10062;DHT22;5070;52.382;5.270;2023-04-25T08:48:17;19.00;82.30
10062;DHT22;5070;52.382;5.270;2023-04-25T08:50:50;19.00;82.20
10062;DHT22;5070;52.382;5.270;2023-04-25T08:53:22;19.00;82.00
10062;DHT22;5070;52.382;5.270;2023-04-25T08:55:55;19.00;80.70
10062;DHT22;5070;52.382;5.270;2023-04-25T08:58:24;19.00;82.00
10062;DHT22;5070;52.382;5.270;2023-04-25T09:00:52;19.00;82.20
10062;DHT22;5070;52.382;5.270;2023-04-25T09:03:23;19.00;81.90
10062;DHT22;5070;52.382;5.270;2023-04-25T09:05:54;19.00;82.00
10062;DHT22;5070;52.382;5.270;2023-04-25T09:08:22;19.00;81.60
10062;DHT22;5070;52.382;5.270;2023-04-25T09:10:50;19.00;81.70
10062;DHT22;5070;52.382;5.270;2023-04-25T09:13:24;19.00;81.30
10062;DHT22;5070;52.382;5.270;2023-04-25T09:16:16;19.00;80.70
10062;DHT22;5070;52.382;5.270;2023-04-25T09:19:20;19.00;80.70
10062;DHT22;5070;52.382;5.270;2023-04-25T09:22:09;19.00;80.50
10062;DHT22;5070;52.382;5.270;2023-04-25T09:24:40;19.00;80.30
10062;DHT22;5070;52.382;5.270;2023-04-25T09:27:11;18.90;80.20
10062;DHT22;5070;52.382;5.270;2023-04-25T09:29:42;19.00;80.20
10062;DHT22;5070;52.382;5.270;2023-04-25T09:32:19;19.00;79.90
10062;DHT22;5070;52.382;5.270;2023-04-25T09:34:51;19.00;80.40
10062;DHT22;5070;52.382;5.270;2023-04-25T09:37:22;19.00;80.70
10062;DHT22;5070;52.382;5.270;2023-04-25T09:40:30;19.00;80.70
10062;DHT22;5070;52.382;5.270;2023-04-25T09:43:12;19.00;80.60
10062;DHT22;5070;52.382;5.270;2023-04-25T09:45:46;19.00;80.80
10062;DHT22;5070;52.382;5.270;2023-04-25T09:48:17;19.00;80.90
10062;DHT22;5070;52.382;5.270;2023-04-25T09:51:05;19.00;81.00
10062;DHT22;5070;52.382;5.270;2023-04-25T09:53:37;19.00;81.80
10062;DHT22;5070;52.382;5.270;2023-04-25T09:56:31;19.00;81.70
10062;DHT22;5070;52.382;5.270;2023-04-25T09:59:06;19.00;81.40
10062;DHT22;5070;52.382;5.270;2023-04-25T10:01:39;19.10;81.60
10062;DHT22;5070;52.382;5.270;2023-04-25T10:04:21;19.10;82.00
10062;DHT22;5070;52.382;5.270;2023-04-25T10:06:59;19.10;81.80
10062;DHT22;5070;52.382;5.270;2023-04-25T10:09:29;19.10;81.70
10062;DHT22;5070;52.382;5.270;2023-04-25T10:12:00;19.10;81.50
10062;DHT22;5070;52.382;5.270;2023-04-25T10:14:29;19.10;81.40
10062;DHT22;5070;52.382;5.270;2023-04-25T10:16:58;19.10;81.50
10062;DHT22;5070;52.382;5.270;2023-04-25T10:19:27;19.10;81.80
10062;DHT22;5070;52.382;5.270;2023-04-25T10:21:58;19.10;81.90
10062;DHT22;5070;52.382;5.270;2023-04-25T10:24:30;19.10;81.90
10062;DHT22;5070;52.382;5.270;2023-04-25T10:26:59;19.10;81.90
10062;DHT22;5070;52.382;5.270;2023-04-25T10:29:28;19.10;81.80
10062;DHT22;5070;52.382;5.270;2023-04-25T10:31:57;19.10;81.30
10062;DHT22;5070;52.382;5.270;2023-04-25T10:34:38;19.10;81.30
10062;DHT22;5070;52.382;5.270;2023-04-25T10:37:09;19.10;81.60
10062;DHT22;5070;52.382;5.270;2023-04-25T10:39:40;19.10;81.80
10062;DHT22;5070;52.382;5.270;2023-04-25T10:42:09;19.10;81.40
10062;DHT22;5070;52.382;5.270;2023-04-25T10:44:37;19.10;81.50
10062;DHT22;5070;52.382;5.270;2023-04-25T10:47:07;19.10;81.10
10062;DHT22;5070;52.382;5.270;2023-04-25T10:49:37;19.10;81.50
10062;DHT22;5070;52.382;5.270;2023-04-25T10:52:17;19.10;81.90
10062;DHT22;5070;52.382;5.270;2023-04-25T10:54:52;19.10;80.90
10062;DHT22;5070;52.382;5.270;2023-04-25T10:57:31;19.10;81.10
10062;DHT22;5070;52.382;5.270;2023-04-25T11:00:05;19.10;81.00
10062;DHT22;5070;52.382;5.270;2023-04-25T11:02:37;19.10;81.20
10062;DHT22;5070;52.382;5.270;2023-04-25T11:05:07;19.10;81.30
10062;DHT22;5070;52.382;5.270;2023-04-25T11:07:38;19.10;81.60
10062;DHT22;5070;52.382;5.270;2023-04-25T11:10:11;19.10;81.30
10062;DHT22;5070;52.382;5.270;2023-04-25T11:12:39;19.10;81.60
10062;DHT22;5070;52.382;5.270;2023-04-25T11:15:09;19.10;81.80
10062;DHT22;5070;52.382;5.270;2023-04-25T11:17:37;19.10;82.60
10062;DHT22;5070;52.382;5.270;2023-04-25T11:20:07;19.10;82.50
10062;DHT22;5070;52.382;5.270;2023-04-25T11:22:38;19.10;82.30
10062;DHT22;5070;52.382;5.270;2023-04-25T11:25:08;19.10;82.00
10062;DHT22;5070;52.382;5.270;2023-04-25T11:27:51;19.10;82.40
10062;DHT22;5070;52.382;5.270;2023-04-25T11:30:20;19.10;82.30
10062;DHT22;5070;52.382;5.270;2023-04-25T11:32:48;19.10;80.90
10062;DHT22;5070;52.382;5.270;2023-04-25T11:35:16;19.00;75.30
10062;DHT22;5070;52.382;5.270;2023-04-25T11:37:45;19.10;78.60
10062;DHT22;5070;52.382;5.270;2023-04-25T11:40:13;19.10;79.50
10062;DHT22;5070;52.382;5.270;2023-04-25T11:42:44;19.10;80.60
10062;DHT22;5070;52.382;5.270;2023-04-25T11:45:14;19.10;81.20
10062;DHT22;5070;52.382;5.270;2023-04-25T11:47:42;19.20;80.20
10062;DHT22;5070;52.382;5.270;2023-04-25T11:50:10;19.20;78.50
10062;DHT22;5070;52.382;5.270;2023-04-25T11:52:40;19.20;79.00
10062;DHT22;5070;52.382;5.270;2023-04-25T11:55:10;19.20;79.80
10062;DHT22;5070;52.382;5.270;2023-04-25T11:57:43;19.20;81.30
10062;DHT22;5070;52.382;5.270;2023-04-25T12:00:17;19.20;81.20
10062;DHT22;5070;52.382;5.270;2023-04-25T12:02:47;19.20;80.50
10062;DHT22;5070;52.382;5.270;2023-04-25T12:05:19;19.20;80.50
10062;DHT22;5070;52.382;5.270;2023-04-25T12:08:09;19.20;81.10
10062;DHT22;5070;52.382;5.270;2023-04-25T12:10:39;19.30;82.00
10062;DHT22;5070;52.382;5.270;2023-04-25T12:13:21;19.30;81.70
10062;DHT22;5070;52.382;5.270;2023-04-25T12:15:50;19.30;81.90
10062;DHT22;5070;52.382;5.270;2023-04-25T12:18:19;19.30;82.20
10062;DHT22;5070;52.382;5.270;2023-04-25T12:20:48;19.30;82.30
10062;DHT22;5070;52.382;5.270;2023-04-25T12:23:16;19.30;82.30
10062;DHT22;5070;52.382;5.270;2023-04-25T12:25:45;19.30;83.10
10062;DHT22;5070;52.382;5.270;2023-04-25T12:28:16;19.30;82.60
10062;DHT22;5070;52.382;5.270;2023-04-25T12:30:58;19.30;82.80
10062;DHT22;5070;52.382;5.270;2023-04-25T12:33:32;19.30;82.90
10062;DHT22;5070;52.382;5.270;2023-04-25T12:36:06;19.30;83.10
10062;DHT22;5070;52.382;5.270;2023-04-25T12:38:38;19.30;83.00
10062;DHT22;5070;52.382;5.270;2023-04-25T12:41:07;19.30;83.00
10062;DHT22;5070;52.382;5.270;2023-04-25T12:43:35;19.30;82.90
10062;DHT22;5070;52.382;5.270;2023-04-25T12:46:08;19.30;82.90
10062;DHT22;5070;52.382;5.270;2023-04-25T12:48:38;19.30;82.60
10062;DHT22;5070;52.382;5.270;2023-04-25T12:51:13;19.30;82.60
10062;DHT22;5070;52.382;5.270;2023-04-25T12:53:45;19.20;82.40
10062;DHT22;5070;52.382;5.270;2023-04-25T12:56:18;19.30;82.20
10062;DHT22;5070;52.382;5.270;2023-04-25T12:58:51;19.30;82.30
10062;DHT22;5070;52.382;5.270;2023-04-25T13:01:23;19.30;82.70
10062;DHT22;5070;52.382;5.270;2023-04-25T13:03:54;19.30;82.70
10062;DHT22;5070;52.382;5.270;2023-04-25T13:06:26;19.30;83.00
10062;DHT22;5070;52.382;5.270;2023-04-25T13:08:56;19.30;83.00
10062;DHT22;5070;52.382;5.270;2023-04-25T13:11:24;19.30;83.40
10062;DHT22;5070;52.382;5.270;2023-04-25T13:13:53;19.30;83.70
10062;DHT22;5070;52.382;5.270;2023-04-25T13:16:23;19.30;83.20
10062;DHT22;5070;52.382;5.270;2023-04-25T13:18:51;19.30;83.10
10062;DHT22;5070;52.382;5.270;2023-04-25T13:21:19;19.30;83.10
10062;DHT22;5070;52.382;5.270;2023-04-25T13:23:46;19.30;82.40
10062;DHT22;5070;52.382;5.270;2023-04-25T13:26:15;19.30;81.90
10062;DHT22;5070;52.382;5.270;2023-04-25T13:28:43;19.30;82.00
10062;DHT22;5070;52.382;5.270;2023-04-25T13:31:11;19.30;81.50
10062;DHT22;5070;52.382;5.270;2023-04-25T13:33:40;19.30;82.20
10062;DHT22;5070;52.382;5.270;2023-04-25T13:36:08;19.30;82.90
10062;DHT22;5070;52.382;5.270;2023-04-25T13:38:42;19.40;82.50
10062;DHT22;5070;52.382;5.270;2023-04-25T13:41:14;19.40;82.80
10062;DHT22;5070;52.382;5.270;2023-04-25T13:43:48;19.40;82.50
10062;DHT22;5070;52.382;5.270;2023-04-25T13:46:19;19.40;82.80
10062;DHT22;5070;52.382;5.270;2023-04-25T13:49:08;19.40;82.50
10062;DHT22;5070;52.382;5.270;2023-04-25T13:51:39;19.40;83.10
10062;DHT22;5070;52.382;5.270;2023-04-25T13:54:10;19.40;83.10
10062;DHT22;5070;52.382;5.270;2023-04-25T13:56:38;19.40;83.70
10062;DHT22;5070;52.382;5.270;2023-04-25T13:59:08;19.40;84.00
10062;DHT22;5070;52.382;5.270;2023-04-25T14:01:36;19.40;83.50
10062;DHT22;5070;52.382;5.270;2023-04-25T14:04:05;19.40;82.70
10062;DHT22;5070;52.382;5.270;2023-04-25T14:06:34;19.20;69.50
10062;DHT22;5070;52.382;5.270;2023-04-25T14:09:02;19.20;73.80
10062;DHT22;5070;52.382;5.270;2023-04-25T14:11:31;19.20;76.90
10062;DHT22;5070;52.382;5.270;2023-04-25T14:14:00;19.30;78.50
10062;DHT22;5070;52.382;5.270;2023-04-25T14:16:30;19.30;80.60
10062;DHT22;5070;52.382;5.270;2023-04-25T14:18:59;19.40;81.10
10062;DHT22;5070;52.382;5.270;2023-04-25T14:21:27;19.40;80.30
10062;DHT22;5070;52.382;5.270;2023-04-25T14:23:59;19.40;81.10
10062;DHT22;5070;52.382;5.270;2023-04-25T14:26:29;19.40;80.60
10062;DHT22;5070;52.382;5.270;2023-04-25T14:28:57;19.40;80.00
10062;DHT22;5070;52.382;5.270;2023-04-25T14:31:25;19.40;80.00
10062;DHT22;5070;52.382;5.270;2023-04-25T14:33:53;19.40;79.90
10062;DHT22;5070;52.382;5.270;2023-04-25T14:36:25;19.40;79.70
10062;DHT22;5070;52.382;5.270;2023-04-25T14:38:53;19.40;80.00
10062;DHT22;5070;52.382;5.270;2023-04-25T14:41:23;19.40;79.70
10062;DHT22;5070;52.382;5.270;2023-04-25T14:43:51;19.50;79.60
10062;DHT22;5070;52.382;5.270;2023-04-25T14:46:20;19.50;79.70
10062;DHT22;5070;52.382;5.270;2023-04-25T14:48:51;19.50;79.70
10062;DHT22;5070;52.382;5.270;2023-04-25T14:51:19;19.50;79.80
10062;DHT22;5070;52.382;5.270;2023-04-25T14:53:47;19.50;79.90
10062;DHT22;5070;52.382;5.270;2023-04-25T14:56:15;19.50;80.00
10062;DHT22;5070;52.382;5.270;2023-04-25T14:58:44;19.50;79.70
10062;DHT22;5070;52.382;5.270;2023-04-25T15:01:13;19.50;80.50
10062;DHT22;5070;52.382;5.270;2023-04-25T15:03:41;19.50;79.20
10062;DHT22;5070;52.382;5.270;2023-04-25T15:06:11;19.50;79.60
10062;DHT22;5070;52.382;5.270;2023-04-25T15:08:39;19.50;80.00
10062;DHT22;5070;52.382;5.270;2023-04-25T15:11:07;19.50;80.10
10062;DHT22;5070;52.382;5.270;2023-04-25T15:13:37;19.50;80.30
10062;DHT22;5070;52.382;5.270;2023-04-25T15:16:09;19.50;81.20
10062;DHT22;5070;52.382;5.270;2023-04-25T15:18:38;19.50;81.40
10062;DHT22;5070;52.382;5.270;2023-04-25T15:21:11;19.50;82.00
10062;DHT22;5070;52.382;5.270;2023-04-25T15:23:39;19.50;82.70
10062;DHT22;5070;52.382;5.270;2023-04-25T15:26:07;19.50;83.20
10062;DHT22;5070;52.382;5.270;2023-04-25T15:28:35;19.50;83.20
10062;DHT22;5070;52.382;5.270;2023-04-25T15:31:03;19.50;82.90
10062;DHT22;5070;52.382;5.270;2023-04-25T15:33:32;19.50;82.50
10062;DHT22;5070;52.382;5.270;2023-04-25T15:36:00;19.50;82.20
10062;DHT22;5070;52.382;5.270;2023-04-25T15:38:31;19.50;79.90
10062;DHT22;5070;52.382;5.270;2023-04-25T15:40:59;19.50;80.70
10062;DHT22;5070;52.382;5.270;2023-04-25T15:43:33;19.50;79.20
10062;DHT22;5070;52.382;5.270;2023-04-25T15:46:04;19.50;79.50
10062;DHT22;5070;52.382;5.270;2023-04-25T15:48:33;19.50;79.60
10062;DHT22;5070;52.382;5.270;2023-04-25T15:51:02;19.50;79.70
10062;DHT22;5070;52.382;5.270;2023-04-25T15:53:29;19.60;79.80
10062;DHT22;5070;52.382;5.270;2023-04-25T15:55:57;19.60;81.30
10062;DHT22;5070;52.382;5.270;2023-04-25T15:58:25;19.60;79.30
10062;DHT22;5070;52.382;5.270;2023-04-25T16:00:55;19.60;80.40
10062;DHT22;5070;52.382;5.270;2023-04-25T16:03:23;19.60;80.40
10062;DHT22;5070;52.382;5.270;2023-04-25T16:05:55;19.60;80.50
10062;DHT22;5070;52.382;5.270;2023-04-25T16:08:23;19.60;80.50
10062;DHT22;5070;52.382;5.270;2023-04-25T16:10:51;19.60;81.10
10062;DHT22;5070;52.382;5.270;2023-04-25T16:13:19;19.60;81.90
10062;DHT22;5070;52.382;5.270;2023-04-25T16:15:48;19.60;81.40